createdAt,value
2023-02-11T00:01:18.854Z,98209.27
2023-02-11T00:04:22.481Z,98201.52
2023-02-11T00:07:14.067Z,98206.50
2023-02-11T00:09:52.980Z,98205.15
2023-02-11T00:12:30.031Z,98209.32
2023-02-11T00:15:08.319Z,98210.50
2023-02-11T00:17:37.329Z,98209.21
2023-02-11T00:20:08.362Z,98207.89
2023-02-11T00:22:37.967Z,98207.09
2023-02-11T00:25:15.289Z,98207.60
2023-02-11T00:27:59.979Z,98207.59
2023-02-11T00:30:35.735Z,98213.22
2023-02-11T00:33:09.365Z,98207.77
2023-02-11T00:35:56.022Z,98206.86
2023-02-11T00:38:25.844Z,98206.21
2023-02-11T00:40:55.864Z,98203.61
2023-02-11T00:43:30.939Z,98202.57
2023-02-11T00:46:00.761Z,98205.36
2023-02-11T00:48:50.797Z,98200.73
2023-02-11T00:51:30.725Z,98196.38
2023-02-11T00:54:07.090Z,98193.92
2023-02-11T00:56:35.676Z,98193.27
2023-02-11T00:59:06.241Z,98191.39
2023-02-11T01:01:55.738Z,98188.86
2023-02-11T01:05:03.396Z,98179.65
2023-02-11T01:07:52.995Z,98173.92
2023-02-11T01:10:54.324Z,98170.81
2023-02-11T01:13:25.139Z,98165.17
2023-02-11T01:16:00.046Z,98159.97
2023-02-11T01:19:07.763Z,98157.77
2023-02-11T01:21:55.441Z,98151.78
2023-02-11T01:24:24.110Z,98150.02
2023-02-11T01:27:06.803Z,98146.88
2023-02-11T01:29:34.674Z,98143.03
2023-02-11T01:32:06.430Z,98140.86
2023-02-11T01:34:35.855Z,98138.17
2023-02-11T01:37:03.793Z,98134.61
2023-02-11T01:39:34.843Z,98133.61
2023-02-11T01:42:03.244Z,98129.46
2023-02-11T01:44:36.620Z,98127.92
2023-02-11T01:47:19.058Z,98124.89
2023-02-11T01:49:56.366Z,98127.11
2023-02-11T01:52:35.277Z,98129.30
2023-02-11T01:55:19.048Z,98123.81
2023-02-11T01:57:52.131Z,98122.44
2023-02-11T02:00:25.605Z,98125.61
2023-02-11T02:03:06.778Z,98124.11
2023-02-11T02:05:44.603Z,98123.19
2023-02-11T02:08:33.707Z,98122.42
2023-02-11T02:11:23.925Z,98121.73
2023-02-11T02:14:31.701Z,98113.16
2023-02-11T02:17:20.528Z,98111.61
2023-02-11T02:20:16.279Z,98105.53
2023-02-11T02:23:15.394Z,98098.79
2023-02-11T02:26:15.552Z,98099.38
2023-02-11T02:29:26.816Z,98098.72
2023-02-11T02:32:41.497Z,98096.55
2023-02-11T02:35:49.484Z,98093.25
2023-02-11T02:38:52.121Z,98089.79
2023-02-11T02:41:42.303Z,98089.58
2023-02-11T02:44:50.783Z,98082.40
2023-02-11T02:47:48.411Z,98079.45
2023-02-11T02:51:13.020Z,98072.83
2023-02-11T02:54:22.516Z,98077.80
2023-02-11T02:57:07.721Z,98079.45
2023-02-11T02:59:58.112Z,98078.34
2023-02-11T03:02:33.801Z,98078.88
2023-02-11T03:05:18.476Z,98082.69
2023-02-11T03:08:05.787Z,98084.77
2023-02-11T03:10:41.295Z,98077.03
2023-02-11T03:13:10.187Z,98074.83
2023-02-11T03:15:43.600Z,98075.44
2023-02-11T03:18:15.630Z,98077.95
2023-02-11T03:20:50.516Z,98082.67
2023-02-11T03:23:28.757Z,98080.50
2023-02-11T03:26:09.469Z,98081.83
2023-02-11T03:28:46.312Z,98081.91
2023-02-11T03:31:24.151Z,98074.73
2023-02-11T03:34:04.684Z,98072.77
2023-02-11T03:36:41.189Z,98073.83
2023-02-11T03:39:11.346Z,98069.92
2023-02-11T03:41:42.229Z,98071.80
2023-02-11T03:44:12.961Z,98072.52
2023-02-11T03:46:44.810Z,98069.05
2023-02-11T03:49:17.792Z,98070.71
2023-02-11T03:51:48.853Z,98073.42
2023-02-11T03:54:21.383Z,98075.91
2023-02-11T03:56:52.885Z,98069.01
2023-02-11T03:59:21.394Z,98068.58
2023-02-11T04:01:49.510Z,98063.49
2023-02-11T04:04:18.195Z,98061.45
2023-02-11T04:06:47.025Z,98059.74
2023-02-11T04:09:15.256Z,98053.90
2023-02-11T04:11:44.276Z,98050.71
2023-02-11T04:14:12.142Z,98045.61
2023-02-11T04:16:40.210Z,98049.57
2023-02-11T04:19:08.626Z,98047.77
2023-02-11T04:21:36.548Z,98045.58
2023-02-11T04:24:05.421Z,98043.92
2023-02-11T04:26:35.084Z,98040.02
2023-02-11T04:29:03.843Z,98034.64
2023-02-11T04:31:31.881Z,98031.86
2023-02-11T04:33:59.785Z,98031.70
2023-02-11T04:36:30.212Z,98031.27
2023-02-11T04:38:58.377Z,98029.98
2023-02-11T04:41:26.523Z,98030.73
2023-02-11T04:43:54.340Z,98023.66
2023-02-11T04:46:22.929Z,98024.42
2023-02-11T04:48:50.832Z,98025.27
2023-02-11T04:51:19.419Z,98020.83
2023-02-11T04:53:47.547Z,98017.61
2023-02-11T04:56:15.968Z,98011.75
2023-02-11T04:58:44.055Z,98008.43
2023-02-11T05:01:15.485Z,98009.83
2023-02-11T05:03:43.770Z,98015.25
2023-02-11T05:06:11.933Z,98021.23
2023-02-11T05:08:41.541Z,98022.27
2023-02-11T05:11:17.742Z,98022.73
2023-02-11T05:13:45.871Z,98027.12
2023-02-11T05:16:14.918Z,98029.17
2023-02-11T05:18:44.268Z,98035.54
2023-02-11T05:21:15.947Z,98034.69
2023-02-11T05:23:45.634Z,98037.58
2023-02-11T05:26:14.687Z,98036.60
2023-02-11T05:28:43.212Z,98034.61
2023-02-11T05:31:12.073Z,98031.88
2023-02-11T05:33:40.597Z,98032.80
2023-02-11T05:36:13.476Z,98028.84
2023-02-11T05:38:43.299Z,98029.36
2023-02-11T05:41:12.243Z,98022.21
2023-02-11T05:43:40.246Z,98021.02
2023-02-11T05:46:15.835Z,98019.22
2023-02-11T05:48:44.152Z,98018.34
2023-02-11T05:51:16.097Z,98018.39
2023-02-11T05:53:44.309Z,98010.13
2023-02-11T05:56:12.557Z,98009.21
2023-02-11T05:58:41.740Z,98012.66
2023-02-11T06:01:09.951Z,98011.60
2023-02-11T06:03:39.727Z,98014.33
2023-02-11T06:06:12.247Z,98012.69
2023-02-11T06:08:41.009Z,98008.78
2023-02-11T06:11:09.332Z,98010.94
2023-02-11T06:13:37.234Z,98010.22
2023-02-11T06:16:05.441Z,98009.94
2023-02-11T06:18:34.400Z,98011.13
2023-02-11T06:21:16.718Z,98011.88
2023-02-11T06:23:53.088Z,98010.86
2023-02-11T06:26:23.489Z,98012.91
2023-02-11T06:28:51.422Z,98012.58
2023-02-11T06:31:19.708Z,98011.92
2023-02-11T06:33:47.705Z,98012.17
2023-02-11T06:36:18.952Z,98014.02
2023-02-11T06:38:47.584Z,98012.54
2023-02-11T06:41:20.093Z,98012.89
2023-02-11T06:43:49.008Z,98010.02
2023-02-11T06:46:16.855Z,98006.86
2023-02-11T06:48:45.160Z,98007.76
2023-02-11T06:51:14.473Z,98004.08
2023-02-11T06:53:45.516Z,98008.59
2023-02-11T06:56:19.583Z,98006.28
2023-02-11T06:58:47.821Z,98002.42
2023-02-11T07:01:16.707Z,98003.69
2023-02-11T07:03:45.953Z,98000.84
2023-02-11T07:06:17.368Z,97999.80
2023-02-11T07:08:47.275Z,97998.21
2023-02-11T07:11:19.014Z,97999.64
2023-02-11T07:13:48.077Z,98002.21
2023-02-11T07:16:17.994Z,98001.48
2023-02-11T07:18:47.620Z,98010.23
2023-02-11T07:21:18.730Z,98014.19
2023-02-11T07:23:48.587Z,98009.53
2023-02-11T07:26:21.163Z,98008.70
2023-02-11T07:28:49.988Z,98011.23
2023-02-11T07:31:21.888Z,98015.30
2023-02-11T07:33:52.371Z,98018.80
2023-02-11T07:36:20.647Z,98022.54
2023-02-11T07:38:48.764Z,98015.73
2023-02-11T07:41:19.878Z,98016.11
2023-02-11T07:43:48.461Z,98010.97
2023-02-11T07:46:21.113Z,98011.17
2023-02-11T07:48:49.187Z,98005.33
2023-02-11T07:51:20.432Z,97997.84
2023-02-11T07:53:50.220Z,98005.13
2023-02-11T07:56:19.516Z,98002.89
2023-02-11T07:58:48.376Z,98008.09
2023-02-11T08:01:25.101Z,97999.52
2023-02-11T08:03:53.311Z,97998.29
2023-02-11T08:06:24.144Z,98000.16
2023-02-11T08:08:53.099Z,97994.09
2023-02-11T08:11:24.277Z,97994.14
2023-02-11T08:13:53.031Z,97990.91
2023-02-11T08:16:27.799Z,97986.95
2023-02-11T08:18:58.298Z,97985.84
2023-02-11T08:21:27.037Z,97977.17
2023-02-11T08:23:55.310Z,97968.63
2023-02-11T08:26:26.350Z,97961.25
2023-02-11T08:28:56.651Z,97956.91
2023-02-11T08:31:30.076Z,97955.33
2023-02-11T08:33:58.340Z,97959.36
2023-02-11T08:36:29.722Z,97959.98
2023-02-11T08:39:15.854Z,97954.97
2023-02-11T08:41:48.880Z,97952.69
2023-02-11T08:44:18.536Z,97949.75
2023-02-11T08:46:47.434Z,97945.08
2023-02-11T08:49:15.685Z,97947.46
2023-02-11T08:51:51.507Z,97944.60
2023-02-11T08:54:24.821Z,97943.05
2023-02-11T08:57:16.444Z,97938.10
2023-02-11T08:59:51.715Z,97934.20
2023-02-11T09:02:20.110Z,97937.51
2023-02-11T09:05:02.078Z,97936.05
2023-02-11T09:07:50.586Z,97933.65
2023-02-11T09:10:38.391Z,97920.94
2023-02-11T09:13:09.472Z,97910.64
2023-02-11T09:15:41.637Z,97907.40
2023-02-11T09:18:31.201Z,97906.64
2023-02-11T09:21:08.372Z,97915.09
2023-02-11T09:23:38.247Z,97914.10
2023-02-11T09:26:11.448Z,97912.35
2023-02-11T09:28:49.310Z,97909.73
2023-02-11T09:31:21.189Z,97911.51
2023-02-11T09:33:55.216Z,97911.27
2023-02-11T09:36:35.611Z,97908.17
2023-02-11T09:39:38.607Z,97904.23
2023-02-11T09:42:45.901Z,97904.69
2023-02-11T09:45:48.024Z,97903.58
2023-02-11T09:48:37.123Z,97906.16
2023-02-11T09:51:33.353Z,97898.21
2023-02-11T09:54:41.091Z,97890.55
2023-02-11T09:57:26.566Z,97896.86
2023-02-11T10:00:18.940Z,97895.49
2023-02-11T10:03:17.651Z,97888.23
2023-02-11T10:06:21.512Z,97889.19
2023-02-11T10:09:28.901Z,97894.94
2023-02-11T10:12:32.004Z,97890.96
2023-02-11T10:15:32.536Z,97874.05
2023-02-11T10:18:21.273Z,97875.89
2023-02-11T10:21:22.537Z,97868.09
2023-02-11T10:24:02.144Z,97863.70
2023-02-11T10:27:01.137Z,97863.38
2023-02-11T10:29:38.652Z,97866.70
2023-02-11T10:32:31.748Z,97870.53
2023-02-11T10:35:05.445Z,97867.40
2023-02-11T10:37:33.459Z,97867.59
2023-02-11T10:40:03.063Z,97865.20
2023-02-11T10:42:31.619Z,97863.34
2023-02-11T10:45:04.295Z,97854.07
2023-02-11T10:47:37.727Z,97847.73
2023-02-11T10:50:26.090Z,97850.48
2023-02-11T10:53:21.282Z,97839.30
2023-02-11T10:55:53.252Z,97833.40
2023-02-11T10:58:28.806Z,97823.08
2023-02-11T11:00:59.720Z,97819.70
2023-02-11T11:03:32.356Z,97817.73
2023-02-11T11:06:04.075Z,97810.30
2023-02-11T11:08:48.991Z,97801.77
2023-02-11T11:11:20.773Z,97792.90
2023-02-11T11:13:59.827Z,97790.27
2023-02-11T11:16:32.485Z,97789.56
2023-02-11T11:19:20.349Z,97782.52
2023-02-11T11:21:54.028Z,97774.08
2023-02-11T11:24:29.453Z,97772.52
2023-02-11T11:27:01.454Z,97768.27
2023-02-11T11:29:37.503Z,97759.89
2023-02-11T11:32:13.308Z,97756.77
2023-02-11T11:34:48.620Z,97751.20
2023-02-11T11:37:32.401Z,97745.45
2023-02-11T11:40:08.039Z,97739.98
2023-02-11T11:42:39.004Z,97736.98
2023-02-11T11:45:27.302Z,97740.88
2023-02-11T11:48:05.173Z,97740.73
2023-02-11T11:50:40.103Z,97731.36
2023-02-11T11:53:27.747Z,97729.23
2023-02-11T11:56:14.026Z,97728.80
2023-02-11T11:58:42.499Z,97734.21
2023-02-11T12:01:28.803Z,97732.10
2023-02-11T12:04:19.471Z,97728.30
2023-02-11T12:07:17.714Z,97721.80
2023-02-11T12:10:09.362Z,97716.98
2023-02-11T12:13:09.608Z,97707.24
2023-02-11T12:15:57.347Z,97700.10
2023-02-11T12:18:49.814Z,97702.23
2023-02-11T12:21:33.582Z,97697.11
2023-02-11T12:24:30.304Z,97687.98
2023-02-11T12:27:16.807Z,97677.22
2023-02-11T12:30:14.790Z,97681.83
2023-02-11T12:33:10.769Z,97686.96
2023-02-11T12:35:55.580Z,97677.94
2023-02-11T12:38:45.971Z,97676.79
2023-02-11T12:42:01.157Z,97678.30
2023-02-11T12:44:52.899Z,97689.59
2023-02-11T12:47:35.629Z,97683.22
2023-02-11T12:50:19.748Z,97672.84
2023-02-11T12:53:23.280Z,97667.91
2023-02-11T12:55:58.496Z,97666.11
2023-02-11T12:58:44.155Z,97669.98
2023-02-11T13:01:21.178Z,97662.08
2023-02-11T13:03:58.981Z,97657.55
2023-02-11T13:06:38.718Z,97655.36
2023-02-11T13:09:18.829Z,97650.31
2023-02-11T13:11:52.279Z,97649.64
2023-02-11T13:14:35.187Z,97639.14
2023-02-11T13:17:16.124Z,97634.23
2023-02-11T13:19:50.837Z,97632.58
2023-02-11T13:22:26.771Z,97630.79
2023-02-11T13:25:23.080Z,97619.32
2023-02-11T13:28:03.896Z,97613.91
2023-02-11T13:30:35.310Z,97616.73
2023-02-11T13:33:07.366Z,97616.84
2023-02-11T13:35:49.022Z,97614.51
2023-02-11T13:38:22.173Z,97615.00
2023-02-11T13:41:07.437Z,97616.83
2023-02-11T13:43:37.034Z,97620.28
2023-02-11T13:46:10.181Z,97623.92
2023-02-11T13:48:54.613Z,97624.96
2023-02-11T13:51:38.532Z,97621.62
2023-02-11T13:54:08.597Z,97620.19
2023-02-11T13:56:40.540Z,97617.34
2023-02-11T13:59:44.294Z,97618.50
2023-02-11T14:02:46.170Z,97612.36
2023-02-11T14:05:46.283Z,97612.74
2023-02-11T14:08:39.123Z,97611.96
2023-02-11T14:11:29.529Z,97605.33
2023-02-11T14:14:05.293Z,97596.82
2023-02-11T14:16:38.411Z,97590.70
2023-02-11T14:19:08.828Z,97584.43
2023-02-11T14:21:40.376Z,97573.16
2023-02-11T14:24:48.076Z,97566.27
2023-02-11T14:27:25.377Z,97566.55
2023-02-11T14:30:28.052Z,97567.98
2023-02-11T14:33:22.861Z,97570.09
2023-02-11T14:36:09.106Z,97569.08
2023-02-11T14:38:53.912Z,97561.28
2023-02-11T14:41:26.288Z,97559.14
2023-02-11T14:44:15.963Z,97556.94
2023-02-11T14:46:46.595Z,97559.48
2023-02-11T14:49:25.867Z,97564.80
2023-02-11T14:51:59.939Z,97574.48
2023-02-11T14:54:29.161Z,97574.11
2023-02-11T14:57:18.814Z,97569.83
2023-02-11T15:00:02.940Z,97566.87
2023-02-11T15:02:37.865Z,97569.81
2023-02-11T15:05:22.505Z,97572.36
2023-02-11T15:07:54.982Z,97572.29
2023-02-11T15:10:38.501Z,97572.98
2023-02-11T15:13:07.659Z,97580.60
2023-02-11T15:15:40.955Z,97579.91
2023-02-11T15:18:17.364Z,97582.44
2023-02-11T15:20:45.410Z,97580.42
2023-02-11T15:23:22.702Z,97574.85
2023-02-11T15:25:55.811Z,97574.84
2023-02-11T15:28:28.988Z,97575.24
2023-02-11T15:31:15.495Z,97569.33
2023-02-11T15:33:43.584Z,97575.84
2023-02-11T15:36:13.990Z,97573.91
2023-02-11T15:38:42.176Z,97564.48
2023-02-11T15:41:37.219Z,97561.92
2023-02-11T15:44:30.851Z,97556.25
2023-02-11T15:47:00.454Z,97545.65
2023-02-11T15:49:37.320Z,97540.92
2023-02-11T15:52:12.760Z,97534.14
2023-02-11T15:54:46.846Z,97529.13
2023-02-11T15:57:35.025Z,97529.86
2023-02-11T16:00:07.178Z,97529.86
2023-02-11T16:02:53.998Z,97537.27
2023-02-11T16:05:37.411Z,97529.79
2023-02-11T16:08:34.261Z,97524.77
2023-02-11T16:11:46.545Z,97514.13
2023-02-11T16:14:48.641Z,97515.54
2023-02-11T16:17:33.624Z,97516.36
2023-02-11T16:20:13.057Z,97507.52
2023-02-11T16:22:42.677Z,97510.98
2023-02-11T16:25:35.521Z,97513.47
2023-02-11T16:28:22.488Z,97513.05
2023-02-11T16:30:56.234Z,97513.38
2023-02-11T16:33:25.972Z,97517.18
2023-02-11T16:35:56.266Z,97519.77
2023-02-11T16:38:24.872Z,97518.06
2023-02-11T16:41:12.912Z,97519.53
2023-02-11T16:44:01.924Z,97526.30
2023-02-11T16:47:02.832Z,97521.46
2023-02-11T16:49:40.324Z,97526.18
2023-02-11T16:52:17.895Z,97521.30
2023-02-11T16:54:59.804Z,97520.77
2023-02-11T16:57:30.354Z,97513.70
2023-02-11T17:00:39.097Z,97509.95
2023-02-11T17:03:38.153Z,97506.23
2023-02-11T17:06:18.409Z,97505.45
2023-02-11T17:09:08.902Z,97510.46
2023-02-11T17:12:05.240Z,97521.73
2023-02-11T17:14:33.251Z,97529.19
2023-02-11T17:17:01.735Z,97528.88
2023-02-11T17:19:29.809Z,97521.14
2023-02-11T17:21:57.759Z,97517.88
2023-02-11T17:24:25.625Z,97514.39
2023-02-11T17:26:54.704Z,97517.96
2023-02-11T17:29:25.362Z,97508.70
2023-02-11T17:31:53.794Z,97501.40
2023-02-11T17:34:22.622Z,97481.03
2023-02-11T17:36:50.850Z,97465.33
2023-02-11T17:39:20.921Z,97450.77
2023-02-11T17:41:48.797Z,97445.13
2023-02-11T17:44:16.827Z,97465.61
2023-02-11T17:46:44.913Z,97466.91
2023-02-11T17:49:12.974Z,97478.17
2023-02-11T17:51:41.080Z,97489.61
2023-02-11T17:54:12.572Z,97493.90
2023-02-11T17:56:41.016Z,97500.04
2023-02-11T17:59:11.042Z,97506.92
2023-02-11T18:01:40.177Z,97510.80
2023-02-11T18:04:13.812Z,97510.19
2023-02-11T18:06:47.280Z,97512.65
2023-02-11T18:09:15.602Z,97511.94
2023-02-11T18:11:43.454Z,97512.27
2023-02-11T18:14:11.704Z,97512.80
2023-02-11T18:16:43.142Z,97509.09
2023-02-11T18:19:12.683Z,97513.48
2023-02-11T18:21:40.710Z,97513.53
2023-02-11T18:24:08.999Z,97515.09
2023-02-11T18:26:36.934Z,97501.64
2023-02-11T18:29:06.137Z,97497.38
2023-02-11T18:31:36.344Z,97493.92
2023-02-11T18:34:07.682Z,97494.39
2023-02-11T18:36:35.844Z,97494.63
2023-02-11T18:39:04.857Z,97495.67
2023-02-11T18:41:32.991Z,97494.73
2023-02-11T18:44:03.202Z,97492.15
2023-02-11T18:46:31.490Z,97490.51
2023-02-11T18:49:00.784Z,97489.66
2023-02-11T18:51:31.745Z,97491.73
2023-02-11T18:54:00.419Z,97490.20
2023-02-11T18:56:28.247Z,97489.52
2023-02-11T18:58:57.900Z,97494.86
2023-02-11T19:01:27.693Z,97491.90
2023-02-11T19:03:58.349Z,97489.89
2023-02-11T19:06:27.977Z,97489.69
2023-02-11T19:08:59.929Z,97497.70
2023-02-11T19:11:46.472Z,97500.10
2023-02-11T19:14:24.905Z,97501.62
2023-02-11T19:16:56.407Z,97495.06
2023-02-11T19:19:28.190Z,97495.85
2023-02-11T19:21:57.375Z,97501.61
2023-02-11T19:24:25.747Z,97499.36
2023-02-11T19:26:57.202Z,97497.29
2023-02-11T19:29:26.032Z,97491.75
2023-02-11T19:31:56.720Z,97488.45
2023-02-11T19:34:24.768Z,97485.23
2023-02-11T19:36:54.191Z,97484.77
2023-02-11T19:39:24.636Z,97490.66
2023-02-11T19:41:53.202Z,97496.85
2023-02-11T19:44:21.119Z,97491.80
2023-02-11T19:46:50.157Z,97481.58
2023-02-11T19:49:23.012Z,97480.75
2023-02-11T19:51:51.447Z,97480.91
2023-02-11T19:54:20.320Z,97475.25
2023-02-11T19:56:48.775Z,97470.90
2023-02-11T19:59:16.676Z,97471.09
2023-02-11T20:01:47.583Z,97469.28
2023-02-11T20:04:17.235Z,97464.47
2023-02-11T20:06:47.977Z,97463.95
2023-02-11T20:09:16.163Z,97461.55
2023-02-11T20:11:44.258Z,97458.55
2023-02-11T20:14:15.139Z,97459.53
2023-02-11T20:16:48.996Z,97450.85
2023-02-11T20:19:20.404Z,97447.95
2023-02-11T20:21:51.634Z,97445.79
2023-02-11T20:24:20.279Z,97444.92
2023-02-11T20:26:48.906Z,97430.81
2023-02-11T20:29:18.169Z,97429.84
2023-02-11T20:31:46.308Z,97433.98
2023-02-11T20:34:15.076Z,97431.02
2023-02-11T20:36:42.895Z,97429.02
2023-02-11T20:39:11.017Z,97424.08
2023-02-11T20:41:40.608Z,97419.44
2023-02-11T20:44:10.580Z,97413.59
2023-02-11T20:46:42.474Z,97413.48
2023-02-11T20:49:13.076Z,97417.80
2023-02-11T20:51:41.065Z,97413.46
2023-02-11T20:54:14.101Z,97406.25
2023-02-11T20:56:42.258Z,97403.19
2023-02-11T20:59:11.602Z,97405.63
2023-02-11T21:01:43.174Z,97415.24
2023-02-11T21:04:14.510Z,97414.48
2023-02-11T21:06:44.908Z,97410.02
2023-02-11T21:09:15.266Z,97403.50
2023-02-11T21:11:43.436Z,97397.51
2023-02-11T21:14:12.288Z,97407.84
2023-02-11T21:16:40.921Z,97401.88
2023-02-11T21:19:08.811Z,97395.89
2023-02-11T21:21:38.722Z,97389.19
2023-02-11T21:24:07.316Z,97390.99
2023-02-11T21:26:36.117Z,97390.46
2023-02-11T21:29:05.502Z,97384.40
2023-02-11T21:31:36.575Z,97384.51
2023-02-11T21:34:05.825Z,97388.45
2023-02-11T21:36:33.814Z,97394.86
2023-02-11T21:39:03.731Z,97395.48
2023-02-11T21:41:31.625Z,97394.89
2023-02-11T21:43:59.535Z,97389.83
2023-02-11T21:46:27.774Z,97392.09
2023-02-11T21:48:56.702Z,97390.23
2023-02-11T21:51:26.207Z,97394.13
2023-02-11T21:53:57.714Z,97395.20
2023-02-11T21:56:27.935Z,97396.91
2023-02-11T21:58:58.650Z,97393.06
2023-02-11T22:01:30.220Z,97394.38
2023-02-11T22:03:58.685Z,97391.31
2023-02-11T22:06:31.479Z,97390.77
2023-02-11T22:09:04.406Z,97396.96
2023-02-11T22:11:32.286Z,97388.30
2023-02-11T22:14:00.470Z,97391.44
2023-02-11T22:16:29.396Z,97401.77
2023-02-11T22:18:58.728Z,97404.45
2023-02-11T22:21:26.634Z,97399.70
2023-02-11T22:23:56.162Z,97398.40
2023-02-11T22:26:25.720Z,97396.14
2023-02-11T22:28:55.300Z,97400.18
2023-02-11T22:31:27.209Z,97395.95
2023-02-11T22:33:55.823Z,97383.20
2023-02-11T22:36:27.772Z,97385.84
2023-02-11T22:38:56.116Z,97388.00
2023-02-11T22:41:24.162Z,97393.05
2023-02-11T22:43:52.076Z,97397.31
2023-02-11T22:46:20.606Z,97396.73
2023-02-11T22:48:49.187Z,97393.39
2023-02-11T22:51:21.111Z,97391.21
2023-02-11T22:53:51.782Z,97394.37
2023-02-11T22:56:20.223Z,97394.49
2023-02-11T22:58:48.594Z,97394.23
2023-02-11T23:01:17.322Z,97400.55
2023-02-11T23:03:45.861Z,97399.96
2023-02-11T23:06:14.260Z,97401.52
2023-02-11T23:08:43.633Z,97400.08
2023-02-11T23:11:16.692Z,97401.28
2023-02-11T23:13:45.867Z,97392.61
2023-02-11T23:16:18.279Z,97389.16
2023-02-11T23:18:47.601Z,97383.40
2023-02-11T23:21:19.241Z,97382.33
2023-02-11T23:23:47.934Z,97375.81
2023-02-11T23:26:18.377Z,97376.40
2023-02-11T23:28:46.467Z,97379.92
2023-02-11T23:31:19.726Z,97382.83
2023-02-11T23:33:48.694Z,97377.61
2023-02-11T23:36:17.929Z,97377.62
2023-02-11T23:38:45.842Z,97375.88
2023-02-11T23:41:14.182Z,97374.04
2023-02-11T23:43:45.390Z,97374.73
2023-02-11T23:46:13.306Z,97371.59
2023-02-11T23:48:41.420Z,97375.33
2023-02-11T23:51:09.790Z,97374.30
2023-02-11T23:53:38.530Z,97369.13
2023-02-11T23:56:09.816Z,97371.54
2023-02-11T23:58:37.757Z,97374.34
